Airfield :
LOGIN :

Register | Disclaimer

   EN    FR    IT 

 










Legend :    VFR   Marginal VFR   IFR   Intensive IFR   Very Intensive IFR
Visi :
Ceiling :
>= 8 km
>= 3000ft
5 to 8 km
1000 to 3000 ft
1500m to 5 km
500 to 1000 ft
800 to 1500m
200 to 500 ft
< 800m
< 200 ft
Symbols :   Thunderstorms  Fog  Heavy snow  Heavy precipitations  Wind > 20 kt
SIGMETs :     Misc.  Thunderstorms  Icing  Turbulence  Mountain Waves  Volcanic Ashes







- Airport Elevation : 209 ft
- IATA code : CLY
- Download approach charts


LFKC - Calvi

CURRENT METAR :
  • 190900Z AUTO 14001KT CAVOK 11/07 Q1004 NOSIG

EXPIRED METARs :
  • 190830Z AUTO 16003KT CAVOK 12/07 Q1004 NOSIG
  • 190800Z AUTO 17004KT CAVOK 09/07 Q1004 NOSIG
  • 190730Z AUTO 20006KT 9999 FEW060 07/05 Q1005 NOSIG
  • 190700Z AUTO 19006KT 9999 FEW058 06/05 Q1005 NOSIG

TAF TAF LFKC
Valid from the 19 at 09:00 until the 20 at 09:00 UTC


190800Z 1909/2009 34006KT 9999 BKN040 TX13/1912Z TN05/2004Z
BECMG 1913/1915 FEW030CB BKN035
PROB40
TEMPO 1918/2002 02015G25KT SHRA SCT020CB BKN030
ATIS : +33 4 95 65 82 49
No reported NOTAMs for that airfield.
1 SIGMET reported for the Marseille FIR (LFMM) :
 
Embedded thunderstorms
LFMM SIGMET 5 VALID 190900/191100 LFPW
LFMM MARSEILLE FIR/UIR EMBD TS FCST S OF N3945 TOP FL360 STNR NC=



MET'MAP, your aeronautical weather chart ! - Copyright ORBIFLY December 2007 - Disclaimer

ORBIFLY MET'MAP TEAM :

Programming & Development : Alexandra Zaïnal
Concept & Development : Baudouin d'Aumeries
Co-Development & Prog : Marc-Olivier Méhu
Technical & hardware support : Manuel Goepfert

Contact : metmap@orbifly.com




SOURCES & CREDITS :

   NOAA